createdAt,value
2023-02-18T00:01:39.661Z,2.13
2023-02-18T00:04:07.349Z,2.09
2023-02-18T00:06:36.248Z,2.26
2023-02-18T00:09:05.298Z,2.20
2023-02-18T00:11:36.663Z,2.05
2023-02-18T00:14:11.262Z,1.99
2023-02-18T00:16:39.334Z,1.85
2023-02-18T00:19:11.162Z,1.98
2023-02-18T00:21:38.965Z,2.11
2023-02-18T00:24:08.320Z,2.02
2023-02-18T00:26:36.720Z,1.88
2023-02-18T00:29:04.392Z,2.10
2023-02-18T00:31:36.227Z,2.11
2023-02-18T00:34:06.078Z,1.77
2023-02-18T00:36:35.789Z,1.96
2023-02-18T00:39:08.440Z,1.70
2023-02-18T00:41:36.727Z,1.75
2023-02-18T00:44:05.653Z,1.64
2023-02-18T00:46:35.099Z,1.74
2023-02-18T00:49:04.649Z,1.74
2023-02-18T00:51:32.532Z,1.82
2023-02-18T00:54:00.422Z,1.75
2023-02-18T00:56:28.218Z,1.71
2023-02-18T00:58:56.056Z,1.74
2023-02-18T01:01:24.502Z,1.84
2023-02-18T01:03:52.173Z,1.72
2023-02-18T01:06:22.014Z,1.79
2023-02-18T01:08:49.843Z,1.75
2023-02-18T01:11:17.776Z,1.89
2023-02-18T01:13:47.093Z,1.80
2023-02-18T01:16:14.802Z,1.71
2023-02-18T01:18:42.657Z,1.64
2023-02-18T01:21:10.612Z,1.64
2023-02-18T01:23:40.763Z,1.67
2023-02-18T01:26:10.611Z,1.84
2023-02-18T01:28:41.595Z,1.94
2023-02-18T01:31:36.741Z,1.77
2023-02-18T01:34:04.951Z,1.83
2023-02-18T01:36:32.525Z,1.64
2023-02-18T01:39:00.145Z,1.73
2023-02-18T01:41:27.866Z,1.79
2023-02-18T01:44:14.773Z,1.59
2023-02-18T01:46:42.906Z,1.80
2023-02-18T01:49:15.665Z,1.98
2023-02-18T01:52:18.375Z,1.88
2023-02-18T01:54:51.931Z,1.76
2023-02-18T01:57:32.905Z,1.72
2023-02-18T02:00:16.935Z,1.71
2023-02-18T02:02:51.578Z,1.69
2023-02-18T02:05:21.927Z,1.72
2023-02-18T02:07:52.849Z,1.57
2023-02-18T02:10:20.842Z,1.50
2023-02-18T02:13:11.542Z,1.56
2023-02-18T02:16:20.551Z,1.47
2023-02-18T02:19:00.510Z,1.56
2023-02-18T02:22:04.662Z,1.34
2023-02-18T02:24:54.364Z,1.56
2023-02-18T02:27:45.362Z,1.53
2023-02-18T02:30:52.070Z,1.55
2023-02-18T02:34:05.318Z,1.38
2023-02-18T02:36:55.553Z,1.63
2023-02-18T02:39:32.042Z,1.64
2023-02-18T02:42:14.004Z,1.69
2023-02-18T02:45:18.566Z,1.90
2023-02-18T02:47:54.680Z,1.78
2023-02-18T02:50:43.651Z,1.47
2023-02-18T02:53:22.207Z,1.60
2023-02-18T02:55:50.000Z,1.75
2023-02-18T02:58:20.761Z,1.79
2023-02-18T03:01:18.240Z,1.68
2023-02-18T03:04:00.810Z,1.69
2023-02-18T03:07:09.295Z,1.50
2023-02-18T03:09:53.654Z,1.90
2023-02-18T03:12:32.453Z,1.82
2023-02-18T03:15:33.686Z,1.87
2023-02-18T03:18:23.376Z,1.63
2023-02-18T03:20:56.998Z,1.70
2023-02-18T03:23:32.592Z,1.99
2023-02-18T03:26:02.927Z,1.91
2023-02-18T03:28:32.429Z,1.97
2023-02-18T03:31:16.089Z,1.83
2023-02-18T03:34:15.776Z,1.92
2023-02-18T03:36:44.961Z,1.58
2023-02-18T03:39:18.133Z,1.65
2023-02-18T03:41:46.847Z,1.72
2023-02-18T03:44:17.959Z,1.83
2023-02-18T03:46:45.933Z,1.92
2023-02-18T03:49:15.737Z,1.94
2023-02-18T03:51:44.379Z,1.74
2023-02-18T03:54:14.206Z,1.69
2023-02-18T03:56:46.533Z,2.03
2023-02-18T03:59:14.231Z,2.03
2023-02-18T04:01:42.251Z,2.13
2023-02-18T04:04:10.095Z,1.97
2023-02-18T04:06:37.829Z,2.22
2023-02-18T04:09:08.888Z,2.16
2023-02-18T04:11:40.891Z,2.03
2023-02-18T04:14:10.006Z,2.45
2023-02-18T04:16:37.692Z,2.65
2023-02-18T04:19:05.401Z,2.61
2023-02-18T04:21:34.208Z,2.47
2023-02-18T04:24:02.233Z,2.62
2023-02-18T04:26:30.356Z,2.64
2023-02-18T04:28:58.053Z,2.26
2023-02-18T04:31:25.752Z,2.18
2023-02-18T04:33:53.474Z,2.43
2023-02-18T04:36:21.403Z,2.32
2023-02-18T04:38:49.092Z,2.21
2023-02-18T04:41:16.774Z,2.48
2023-02-18T04:43:44.419Z,2.39
2023-02-18T04:46:13.587Z,2.40
2023-02-18T04:48:41.509Z,2.44
2023-02-18T04:51:09.532Z,2.58
2023-02-18T04:53:40.225Z,2.42
2023-02-18T04:56:08.389Z,2.26
2023-02-18T04:58:36.133Z,2.46
2023-02-18T05:01:06.240Z,2.20
2023-02-18T05:03:34.030Z,2.13
2023-02-18T05:06:02.001Z,2.27
2023-02-18T05:08:30.031Z,2.35
2023-02-18T05:10:57.720Z,2.20
2023-02-18T05:13:26.449Z,2.65
2023-02-18T05:15:54.154Z,2.28
2023-02-18T05:18:21.938Z,2.48
2023-02-18T05:20:49.539Z,2.43
2023-02-18T05:23:18.624Z,2.38
2023-02-18T05:25:46.230Z,2.46
2023-02-18T05:28:13.990Z,2.38
2023-02-18T05:30:41.725Z,2.72
2023-02-18T05:33:09.388Z,3.03
2023-02-18T05:35:37.153Z,2.83
2023-02-18T05:38:04.738Z,2.91
2023-02-18T05:40:32.424Z,3.08
2023-02-18T05:42:59.996Z,2.98
2023-02-18T05:45:27.733Z,3.42
2023-02-18T05:47:55.319Z,3.30
2023-02-18T05:50:23.153Z,3.72
2023-02-18T05:52:50.784Z,3.67
2023-02-18T05:55:18.736Z,3.73
2023-02-18T05:57:46.429Z,4.02
2023-02-18T06:00:15.073Z,3.86
2023-02-18T06:02:43.053Z,3.71
2023-02-18T06:05:10.839Z,4.25
2023-02-18T06:07:38.612Z,3.57
2023-02-18T06:10:07.575Z,3.67
2023-02-18T06:12:35.258Z,3.65
2023-02-18T06:15:03.344Z,3.92
2023-02-18T06:17:31.032Z,3.85
2023-02-18T06:19:58.799Z,3.88
2023-02-18T06:22:26.528Z,4.46
2023-02-18T06:24:54.264Z,4.00
2023-02-18T06:27:21.849Z,3.56
2023-02-18T06:29:49.522Z,3.65
2023-02-18T06:32:17.237Z,3.59
2023-02-18T06:34:44.894Z,4.16
2023-02-18T06:37:12.735Z,4.26
2023-02-18T06:39:40.431Z,4.43
2023-02-18T06:42:08.008Z,4.08
2023-02-18T06:44:37.826Z,3.86
2023-02-18T06:47:05.780Z,3.58
2023-02-18T06:49:33.448Z,3.66
2023-02-18T06:52:01.045Z,3.11
2023-02-18T06:54:28.712Z,3.33
2023-02-18T06:56:56.698Z,3.93
2023-02-18T06:59:24.458Z,3.49
2023-02-18T07:01:52.184Z,3.59
2023-02-18T07:04:19.798Z,3.67
2023-02-18T07:06:47.431Z,3.85
2023-02-18T07:09:15.259Z,3.78
2023-02-18T07:11:42.930Z,4.08
2023-02-18T07:14:10.672Z,4.60
2023-02-18T07:16:38.437Z,4.08
2023-02-18T07:19:06.246Z,4.33
2023-02-18T07:21:33.960Z,3.89
2023-02-18T07:24:01.652Z,3.74
2023-02-18T07:26:29.326Z,4.27
2023-02-18T07:28:56.935Z,4.08
2023-02-18T07:31:24.992Z,4.23
2023-02-18T07:33:52.833Z,4.27
2023-02-18T07:36:20.700Z,4.93
2023-02-18T07:38:48.394Z,4.86
2023-02-18T07:41:22.315Z,5.06
2023-02-18T07:43:50.448Z,4.81
2023-02-18T07:46:19.811Z,5.16
2023-02-18T07:48:47.447Z,5.02
2023-02-18T07:51:17.589Z,5.43
2023-02-18T07:53:45.320Z,5.19
2023-02-18T07:56:12.927Z,4.50
2023-02-18T07:58:40.650Z,4.18
2023-02-18T08:01:14.822Z,5.08
2023-02-18T08:03:43.047Z,5.42
2023-02-18T08:06:39.817Z,5.87
2023-02-18T08:09:08.310Z,5.90
2023-02-18T08:11:36.278Z,6.61
2023-02-18T08:14:04.243Z,6.94
2023-02-18T08:16:32.466Z,7.85
2023-02-18T08:19:01.330Z,6.36
2023-02-18T08:21:29.425Z,5.87
2023-02-18T08:23:59.436Z,5.61
2023-02-18T08:26:29.350Z,5.98
2023-02-18T08:29:00.129Z,5.57
2023-02-18T08:31:30.510Z,5.81
2023-02-18T08:34:00.738Z,6.32
2023-02-18T08:36:28.813Z,5.22
2023-02-18T08:38:58.509Z,5.21
2023-02-18T08:41:26.226Z,5.07
2023-02-18T08:43:53.978Z,5.92
2023-02-18T08:46:33.331Z,5.28
2023-02-18T08:49:04.788Z,5.83
2023-02-18T08:51:35.053Z,5.80
2023-02-18T08:54:03.241Z,5.89
2023-02-18T08:56:32.545Z,5.57
2023-02-18T08:59:00.370Z,5.29
2023-02-18T09:01:30.928Z,5.63
2023-02-18T09:04:03.206Z,5.64
2023-02-18T09:06:31.598Z,5.41
2023-02-18T09:09:01.919Z,5.78
2023-02-18T09:11:30.089Z,5.57
2023-02-18T09:13:58.130Z,5.44
2023-02-18T09:16:28.197Z,5.57
2023-02-18T09:18:58.768Z,6.36
2023-02-18T09:21:27.095Z,5.98
2023-02-18T09:23:54.849Z,6.23
2023-02-18T09:26:26.268Z,6.40
2023-02-18T09:28:56.496Z,6.60
2023-02-18T09:31:27.097Z,7.32
2023-02-18T09:34:04.526Z,7.17
2023-02-18T09:36:33.144Z,6.72
2023-02-18T09:39:01.252Z,6.53
2023-02-18T09:41:38.144Z,7.40
2023-02-18T09:44:16.038Z,7.69
2023-02-18T09:47:16.101Z,7.96
2023-02-18T09:49:54.311Z,8.53
2023-02-18T09:52:29.943Z,8.28
2023-02-18T09:54:58.271Z,8.42
2023-02-18T09:57:43.181Z,8.50
2023-02-18T10:00:38.300Z,9.00
2023-02-18T10:03:22.858Z,8.71
2023-02-18T10:06:08.582Z,8.79
2023-02-18T10:08:50.439Z,7.29
2023-02-18T10:11:28.493Z,8.51
2023-02-18T10:13:58.456Z,8.53
2023-02-18T10:16:27.050Z,8.29
2023-02-18T10:19:07.395Z,7.58
2023-02-18T10:21:36.223Z,8.46
2023-02-18T10:24:40.996Z,8.18
2023-02-18T10:27:18.507Z,8.43
2023-02-18T10:29:46.221Z,8.45
2023-02-18T10:32:32.965Z,8.64
2023-02-18T10:35:20.784Z,8.58
2023-02-18T10:38:33.203Z,8.80
2023-02-18T10:41:23.631Z,8.36
2023-02-18T10:44:12.418Z,8.77
2023-02-18T10:47:29.102Z,8.59
2023-02-18T10:50:34.329Z,8.06
2023-02-18T10:53:19.301Z,8.64
2023-02-18T10:55:51.043Z,8.62
2023-02-18T10:58:37.119Z,8.38
2023-02-18T11:01:15.052Z,8.21
2023-02-18T11:03:52.592Z,8.36
2023-02-18T11:06:46.418Z,8.24
2023-02-18T11:09:46.502Z,7.71
2023-02-18T11:12:26.737Z,8.07
2023-02-18T11:15:18.952Z,8.26
2023-02-18T11:17:50.623Z,6.62
2023-02-18T11:20:24.966Z,6.65
2023-02-18T11:23:18.364Z,6.60
2023-02-18T11:26:13.002Z,6.70
2023-02-18T11:29:01.373Z,6.82
2023-02-18T11:31:41.254Z,6.16
2023-02-18T11:34:29.367Z,5.98
2023-02-18T11:37:19.490Z,5.95
2023-02-18T11:39:51.723Z,5.62
2023-02-18T11:42:24.824Z,5.43
2023-02-18T11:44:56.614Z,5.48
2023-02-18T11:47:28.131Z,5.59
2023-02-18T11:50:10.784Z,5.38
2023-02-18T11:52:41.441Z,5.54
2023-02-18T11:55:25.932Z,5.51
2023-02-18T11:58:05.360Z,5.47
2023-02-18T12:00:42.791Z,5.59
2023-02-18T12:03:35.183Z,5.51
2023-02-18T12:06:12.580Z,5.55
2023-02-18T12:08:54.060Z,5.92
2023-02-18T12:11:42.312Z,5.75
2023-02-18T12:14:27.763Z,5.81
2023-02-18T12:17:38.772Z,6.17
2023-02-18T12:20:56.051Z,6.21
2023-02-18T12:23:52.134Z,6.79
2023-02-18T12:26:47.242Z,6.57
2023-02-18T12:29:27.246Z,6.59
2023-02-18T12:32:10.627Z,6.50
2023-02-18T12:34:53.085Z,6.16
2023-02-18T12:37:56.994Z,6.21
2023-02-18T12:41:21.708Z,6.27
2023-02-18T12:44:01.608Z,6.31
2023-02-18T12:46:52.681Z,6.22
2023-02-18T12:49:32.190Z,6.05
2023-02-18T12:52:05.899Z,6.10
2023-02-18T12:55:15.530Z,6.41
2023-02-18T12:58:35.849Z,6.37
2023-02-18T13:01:22.169Z,6.63
2023-02-18T13:04:05.803Z,6.31
2023-02-18T13:07:05.798Z,6.25
2023-02-18T13:10:12.342Z,6.21
2023-02-18T13:13:01.395Z,6.09
2023-02-18T13:16:08.213Z,5.86
2023-02-18T13:18:45.659Z,6.06
2023-02-18T13:21:16.635Z,6.12
2023-02-18T13:24:26.029Z,5.92
2023-02-18T13:27:17.352Z,5.91
2023-02-18T13:30:13.848Z,5.73
2023-02-18T13:33:00.182Z,6.03
2023-02-18T13:35:35.383Z,6.17
2023-02-18T13:38:31.739Z,5.95
2023-02-18T13:41:01.240Z,5.88
2023-02-18T13:43:34.610Z,6.20
2023-02-18T13:46:23.947Z,6.06
2023-02-18T13:49:03.878Z,6.09
2023-02-18T13:51:51.133Z,6.04
2023-02-18T13:54:45.020Z,5.99
2023-02-18T13:57:28.723Z,5.85
2023-02-18T14:00:06.094Z,6.08
2023-02-18T14:02:36.889Z,6.08
2023-02-18T14:05:08.507Z,6.01
2023-02-18T14:07:36.249Z,5.69
2023-02-18T14:10:33.815Z,5.63
2023-02-18T14:13:24.892Z,5.78
2023-02-18T14:16:01.446Z,5.66
2023-02-18T14:18:41.534Z,5.70
2023-02-18T14:21:14.968Z,5.62
2023-02-18T14:23:52.196Z,5.54
2023-02-18T14:26:35.508Z,5.22
2023-02-18T14:29:12.808Z,5.66
2023-02-18T14:31:52.433Z,5.65
2023-02-18T14:35:40.902Z,5.72
2023-02-18T14:38:47.178Z,5.72
2023-02-18T14:41:36.184Z,5.39
2023-02-18T14:45:17.822Z,5.47
2023-02-18T14:48:57.691Z,5.64
2023-02-18T14:51:29.357Z,5.58
2023-02-18T14:54:02.746Z,5.55
2023-02-18T14:56:31.078Z,5.34
2023-02-18T14:59:02.631Z,5.40
2023-02-18T15:01:41.073Z,5.29
2023-02-18T15:04:19.435Z,5.34
2023-02-18T15:07:03.356Z,5.68
2023-02-18T15:09:34.358Z,5.48
2023-02-18T15:12:12.650Z,5.35
2023-02-18T15:14:53.753Z,5.46
2023-02-18T15:17:29.779Z,5.35
2023-02-18T15:20:05.730Z,5.56
2023-02-18T15:22:38.112Z,5.72
2023-02-18T15:25:07.584Z,5.65
2023-02-18T15:27:41.588Z,5.49
2023-02-18T15:30:30.935Z,5.56
2023-02-18T15:33:01.335Z,5.40
2023-02-18T15:35:33.548Z,5.54
2023-02-18T15:38:21.701Z,5.29
2023-02-18T15:40:56.735Z,5.30
2023-02-18T15:43:28.443Z,5.17
2023-02-18T15:45:58.990Z,5.52
2023-02-18T15:48:39.291Z,5.52
2023-02-18T15:51:17.240Z,5.64
2023-02-18T15:53:53.594Z,5.63
2023-02-18T15:56:38.692Z,5.32
2023-02-18T15:59:27.838Z,5.63
2023-02-18T16:02:04.114Z,5.21
2023-02-18T16:04:40.471Z,5.55
2023-02-18T16:07:37.710Z,5.58
2023-02-18T16:10:22.184Z,5.57
2023-02-18T16:13:14.035Z,5.26
2023-02-18T16:15:46.542Z,4.96
2023-02-18T16:18:40.643Z,5.04
2023-02-18T16:21:34.271Z,5.05
2023-02-18T16:24:22.640Z,5.16
2023-02-18T16:26:57.828Z,5.19
2023-02-18T16:29:37.619Z,4.84
2023-02-18T16:32:06.341Z,4.91
2023-02-18T16:34:36.009Z,4.98
2023-02-18T16:37:23.327Z,5.22
2023-02-18T16:39:55.106Z,5.22
2023-02-18T16:42:23.424Z,5.09
2023-02-18T16:44:54.083Z,4.95
2023-02-18T16:47:22.309Z,4.83
2023-02-18T16:49:51.558Z,4.94
2023-02-18T16:52:20.272Z,5.02
2023-02-18T16:54:50.550Z,5.13
2023-02-18T16:57:19.270Z,4.87
2023-02-18T16:59:48.730Z,4.88
2023-02-18T17:02:29.266Z,4.80
2023-02-18T17:04:58.742Z,4.86
2023-02-18T17:07:32.782Z,4.99
2023-02-18T17:10:02.041Z,4.95
2023-02-18T17:12:32.852Z,4.80
2023-02-18T17:15:30.729Z,5.00
2023-02-18T17:18:01.866Z,5.00
2023-02-18T17:20:33.732Z,4.84
2023-02-18T17:23:02.361Z,5.02
2023-02-18T17:25:52.617Z,4.90
2023-02-18T17:28:21.891Z,4.86
2023-02-18T17:30:57.135Z,4.72
2023-02-18T17:33:25.908Z,5.06
2023-02-18T17:35:53.759Z,4.94
2023-02-18T17:38:21.695Z,5.09
2023-02-18T17:40:51.060Z,4.99
2023-02-18T17:43:19.606Z,4.87
2023-02-18T17:45:55.181Z,4.76
2023-02-18T17:48:24.394Z,4.84
2023-02-18T17:50:53.131Z,4.96
2023-02-18T17:53:21.206Z,5.08
2023-02-18T17:55:50.117Z,4.86
2023-02-18T17:58:18.420Z,4.80
2023-02-18T18:00:54.804Z,5.02
2023-02-18T18:03:23.507Z,5.02
2023-02-18T18:05:54.337Z,4.88
2023-02-18T18:08:22.381Z,4.92
2023-02-18T18:10:58.727Z,5.05
2023-02-18T18:13:32.222Z,4.92
2023-02-18T18:16:00.556Z,4.96
2023-02-18T18:18:38.763Z,5.07
2023-02-18T18:21:16.133Z,5.17
2023-02-18T18:23:44.061Z,5.03
2023-02-18T18:26:11.785Z,4.97
2023-02-18T18:28:39.732Z,5.03
2023-02-18T18:31:19.101Z,4.89
2023-02-18T18:33:55.614Z,5.16
2023-02-18T18:36:26.699Z,4.97
2023-02-18T18:38:54.416Z,5.09
2023-02-18T18:41:22.797Z,5.18
2023-02-18T18:43:51.026Z,6.22
2023-02-18T18:46:21.682Z,7.29
2023-02-18T18:48:50.061Z,7.51
2023-02-18T18:51:31.023Z,7.01
2023-02-18T18:54:09.258Z,5.89
2023-02-18T18:56:38.466Z,6.39
2023-02-18T18:59:10.257Z,4.67
2023-02-18T19:01:38.155Z,3.89
2023-02-18T19:04:06.105Z,3.32
2023-02-18T19:06:33.968Z,3.37
2023-02-18T19:09:01.696Z,3.51
2023-02-18T19:11:33.506Z,3.50
2023-02-18T19:14:22.026Z,2.70
2023-02-18T19:16:52.848Z,3.30
2023-02-18T19:19:24.555Z,3.73
2023-02-18T19:21:54.722Z,4.92
2023-02-18T19:24:24.955Z,3.95
2023-02-18T19:26:53.215Z,3.79
2023-02-18T19:29:23.392Z,3.93
2023-02-18T19:31:51.256Z,4.77
2023-02-18T19:34:19.137Z,4.58
2023-02-18T19:37:18.476Z,5.15
2023-02-18T19:39:49.789Z,6.03
2023-02-18T19:42:18.875Z,5.43
2023-02-18T19:45:01.072Z,5.38
2023-02-18T19:47:32.399Z,5.38
2023-02-18T19:50:10.769Z,4.38
2023-02-18T19:53:00.953Z,3.58
2023-02-18T19:55:29.447Z,3.48
2023-02-18T19:57:57.486Z,2.80
2023-02-18T20:00:25.486Z,2.53
2023-02-18T20:02:53.696Z,2.41
2023-02-18T20:05:21.935Z,1.99
2023-02-18T20:07:54.110Z,2.02
2023-02-18T20:10:28.346Z,1.78
2023-02-18T20:13:16.256Z,1.84
2023-02-18T20:15:47.232Z,2.21
2023-02-18T20:18:15.378Z,2.52
2023-02-18T20:20:48.964Z,2.83
2023-02-18T20:23:52.211Z,2.04
2023-02-18T20:27:01.125Z,1.88
2023-02-18T20:29:33.665Z,2.39
2023-02-18T20:32:03.617Z,2.49
2023-02-18T20:34:32.849Z,2.30
2023-02-18T20:37:07.830Z,2.03
2023-02-18T20:39:54.618Z,2.13
2023-02-18T20:42:22.577Z,2.98
2023-02-18T20:44:53.925Z,3.10
2023-02-18T20:47:22.127Z,3.53
2023-02-18T20:49:56.548Z,2.76
2023-02-18T20:52:25.129Z,3.33
2023-02-18T20:54:55.532Z,4.35
2023-02-18T20:57:24.018Z,3.74
2023-02-18T20:59:55.056Z,3.97
2023-02-18T21:02:28.556Z,5.24
2023-02-18T21:05:13.098Z,6.29
2023-02-18T21:08:07.239Z,6.77
2023-02-18T21:10:42.355Z,6.84
2023-02-18T21:13:10.707Z,4.93
2023-02-18T21:15:45.092Z,3.64
2023-02-18T21:18:14.345Z,3.75
2023-02-18T21:20:46.615Z,1.97
2023-02-18T21:23:42.709Z,1.60
2023-02-18T21:26:22.582Z,1.31
2023-02-18T21:28:54.462Z,1.37
2023-02-18T21:31:28.431Z,1.51
2023-02-18T21:33:57.012Z,1.66
2023-02-18T21:36:26.208Z,1.75
2023-02-18T21:39:00.732Z,1.41
2023-02-18T21:41:40.174Z,1.38
2023-02-18T21:44:09.923Z,1.73
2023-02-18T21:46:41.110Z,2.48
2023-02-18T21:49:18.521Z,3.12
2023-02-18T21:51:58.721Z,2.05
2023-02-18T21:54:44.921Z,1.68
2023-02-18T21:57:16.455Z,1.31
2023-02-18T21:59:46.572Z,1.22
2023-02-18T22:02:19.668Z,1.47
2023-02-18T22:04:48.867Z,1.57
2023-02-18T22:07:18.437Z,1.83
2023-02-18T22:09:51.842Z,2.93
2023-02-18T22:12:24.546Z,3.35
2023-02-18T22:14:52.830Z,3.01
2023-02-18T22:17:24.359Z,2.44
2023-02-18T22:19:55.014Z,2.50
2023-02-18T22:22:22.964Z,2.74
2023-02-18T22:24:51.370Z,2.62
2023-02-18T22:27:19.573Z,2.79
2023-02-18T22:29:50.160Z,2.95
2023-02-18T22:32:18.322Z,3.08
2023-02-18T22:34:46.406Z,3.47
2023-02-18T22:37:14.321Z,3.77
2023-02-18T22:39:42.314Z,3.39
2023-02-18T22:42:10.108Z,3.50
2023-02-18T22:44:40.494Z,3.85
2023-02-18T22:47:08.419Z,3.82
2023-02-18T22:49:36.333Z,3.86
2023-02-18T22:52:06.991Z,4.23
2023-02-18T22:54:37.320Z,4.41
2023-02-18T22:57:06.544Z,4.27
2023-02-18T22:59:37.282Z,3.67
2023-02-18T23:02:05.298Z,3.60
2023-02-18T23:04:33.237Z,3.74
2023-02-18T23:07:01.180Z,4.07
2023-02-18T23:09:31.350Z,4.53
2023-02-18T23:11:59.482Z,4.84
2023-02-18T23:14:28.367Z,4.86
2023-02-18T23:17:18.655Z,5.37
2023-02-18T23:19:52.594Z,5.05
2023-02-18T23:22:33.528Z,4.83
2023-02-18T23:25:02.162Z,4.89
2023-02-18T23:27:35.777Z,4.68
2023-02-18T23:30:09.377Z,4.67
2023-02-18T23:32:56.365Z,5.75
2023-02-18T23:35:31.314Z,5.08
2023-02-18T23:38:05.013Z,5.25
2023-02-18T23:40:40.722Z,5.30
2023-02-18T23:43:08.776Z,5.66
2023-02-18T23:45:50.272Z,5.91
2023-02-18T23:48:19.553Z,4.77
2023-02-18T23:50:49.582Z,3.90
2023-02-18T23:53:17.297Z,3.76
2023-02-18T23:55:44.999Z,3.39
2023-02-18T23:58:12.939Z,3.43
